createdAt,value
2023-04-09T00:01:03.087Z,101003.41
2023-04-09T00:03:29.636Z,101004.91
2023-04-09T00:05:56.068Z,101002.13
2023-04-09T00:08:22.480Z,101008.88
2023-04-09T00:10:50.186Z,101001.28
2023-04-09T00:13:22.582Z,101009.50
2023-04-09T00:15:55.022Z,101005.88
2023-04-09T00:18:21.519Z,101005.00
2023-04-09T00:20:47.921Z,101000.63
2023-04-09T00:23:14.398Z,100999.88
2023-04-09T00:25:40.967Z,101002.34
2023-04-09T00:28:08.711Z,101001.38
2023-04-09T00:30:35.300Z,101003.97
2023-04-09T00:33:01.781Z,101004.16
2023-04-09T00:35:28.308Z,101000.94
2023-04-09T00:37:54.800Z,101000.94
2023-04-09T00:40:21.348Z,100992.81
2023-04-09T00:42:47.801Z,100994.84
2023-04-09T00:45:15.545Z,100988.19
2023-04-09T00:47:42.144Z,100990.34
2023-04-09T00:50:09.240Z,100985.97
2023-04-09T00:52:36.152Z,100982.41
2023-04-09T00:55:04.988Z,100979.53
2023-04-09T00:57:31.605Z,100979.72
2023-04-09T00:59:58.637Z,100978.69
2023-04-09T01:02:27.896Z,100970.56
2023-04-09T01:04:54.452Z,100968.09
2023-04-09T01:07:38.184Z,100966.38
2023-04-09T01:10:16.873Z,100972.59
2023-04-09T01:12:53.898Z,100964.66
2023-04-09T01:15:27.615Z,100960.28
2023-04-09T01:18:02.921Z,100959.44
2023-04-09T01:20:34.036Z,100958.34
2023-04-09T01:23:11.117Z,100959.09
2023-04-09T01:25:45.058Z,100957.19
2023-04-09T01:28:16.180Z,100946.50
2023-04-09T01:30:47.896Z,100944.75
2023-04-09T01:33:16.065Z,100944.31
2023-04-09T01:35:43.573Z,100944.13
2023-04-09T01:38:11.061Z,100944.22
2023-04-09T01:40:37.954Z,100946.69
2023-04-09T01:43:06.776Z,100940.50
2023-04-09T01:45:34.825Z,100933.75
2023-04-09T01:48:02.532Z,100933.75
2023-04-09T01:50:29.584Z,100931.84
2023-04-09T01:52:56.275Z,100932.69
2023-04-09T01:55:22.723Z,100932.69
2023-04-09T01:57:49.221Z,100930.88
2023-04-09T02:00:16.141Z,100935.25
2023-04-09T02:02:52.762Z,100937.81
2023-04-09T02:05:21.442Z,100928.28
2023-04-09T02:07:52.568Z,100937.06
2023-04-09T02:10:22.049Z,100929.88
2023-04-09T02:12:51.441Z,100929.88
2023-04-09T02:15:19.290Z,100930.09
2023-04-09T02:17:47.346Z,100929.81
2023-04-09T02:20:16.998Z,100934.50
2023-04-09T02:22:43.501Z,100937.91
2023-04-09T02:25:09.994Z,100931.84
2023-04-09T02:27:36.458Z,100933.63
2023-04-09T02:30:03.270Z,100927.22
2023-04-09T02:32:29.809Z,100931.59
2023-04-09T02:34:57.585Z,100923.47
2023-04-09T02:37:24.206Z,100917.56
2023-04-09T02:39:50.643Z,100920.25
2023-04-09T02:42:17.085Z,100921.13
2023-04-09T02:44:43.522Z,100913.97
2023-04-09T02:47:09.964Z,100916.63
2023-04-09T02:49:36.576Z,100922.06
2023-04-09T02:52:04.426Z,100914.38
2023-04-09T02:54:30.865Z,100923.25
2023-04-09T02:56:57.309Z,100919.59
2023-04-09T02:59:23.866Z,100916.94
2023-04-09T03:01:50.389Z,100914.50
2023-04-09T03:04:16.937Z,100910.09
2023-04-09T03:06:43.444Z,100914.38
2023-04-09T03:09:11.314Z,100914.25
2023-04-09T03:11:37.783Z,100910.66
2023-04-09T03:14:04.283Z,100917.69
2023-04-09T03:16:30.750Z,100906.25
2023-04-09T03:18:57.273Z,100907.31
2023-04-09T03:21:23.838Z,100907.22
2023-04-09T03:23:50.318Z,100903.69
2023-04-09T03:26:18.057Z,100897.47
2023-04-09T03:28:44.498Z,100902.72
2023-04-09T03:31:10.969Z,100905.28
2023-04-09T03:33:37.404Z,100908.28
2023-04-09T03:36:04.293Z,100904.66
2023-04-09T03:38:30.813Z,100903.81
2023-04-09T03:40:57.415Z,100899.31
2023-04-09T03:43:25.208Z,100893.84
2023-04-09T03:45:52.280Z,100894.69
2023-04-09T03:48:18.752Z,100890.31
2023-04-09T03:50:45.221Z,100889.25
2023-04-09T03:53:11.872Z,100890.31
2023-04-09T03:55:38.300Z,100884.53
2023-04-09T03:58:04.771Z,100887.75
2023-04-09T04:00:32.524Z,100880.59
2023-04-09T04:02:59.150Z,100873.41
2023-04-09T04:05:25.899Z,100876.94
2023-04-09T04:07:52.377Z,100873.41
2023-04-09T04:10:18.994Z,100884.13
2023-04-09T04:12:45.698Z,100886.66
2023-04-09T04:15:12.170Z,100882.41
2023-04-09T04:17:39.991Z,100875.25
2023-04-09T04:20:07.378Z,100887.00
2023-04-09T04:22:34.187Z,100885.81
2023-04-09T04:25:00.732Z,100883.25
2023-04-09T04:27:27.180Z,100880.59
2023-04-09T04:29:53.624Z,100882.50
2023-04-09T04:32:20.102Z,100875.31
2023-04-09T04:34:50.188Z,100871.72
2023-04-09T04:37:16.647Z,100881.66
2023-04-09T04:39:43.114Z,100878.84
2023-04-09T04:42:09.609Z,100876.50
2023-04-09T04:44:36.159Z,100875.53
2023-04-09T04:47:02.674Z,100879.19
2023-04-09T04:49:29.130Z,100876.31
2023-04-09T04:51:56.835Z,100879.19
2023-04-09T04:54:23.290Z,100882.81
2023-04-09T04:56:49.855Z,100887.41
2023-04-09T04:59:16.328Z,100893.59
2023-04-09T05:01:42.961Z,100885.72
2023-04-09T05:04:09.505Z,100881.22
2023-04-09T05:06:35.996Z,100883.03
2023-04-09T05:09:03.816Z,100881.34
2023-04-09T05:11:30.253Z,100886.44
2023-04-09T05:13:56.707Z,100884.75
2023-04-09T05:16:23.349Z,100887.41
2023-04-09T05:18:50.353Z,100892.13
2023-04-09T05:21:17.036Z,100887.81
2023-04-09T05:23:43.510Z,100879.50
2023-04-09T05:26:11.263Z,100877.03
2023-04-09T05:28:37.801Z,100870.84
2023-04-09T05:31:04.339Z,100869.88
2023-04-09T05:33:30.795Z,100875.97
2023-04-09T05:35:57.248Z,100877.91
2023-04-09T05:38:23.739Z,100876.06
2023-04-09T05:40:50.137Z,100878.00
2023-04-09T05:43:17.863Z,100884.94
2023-04-09T05:45:44.313Z,100895.84
2023-04-09T05:48:10.906Z,100902.06
2023-04-09T05:50:47.533Z,100896.72
2023-04-09T05:53:21.219Z,100901.28
2023-04-09T05:55:47.943Z,100901.19
2023-04-09T05:58:15.060Z,100908.53
2023-04-09T06:00:42.941Z,100903.88
2023-04-09T06:03:09.792Z,100898.59
2023-04-09T06:05:36.383Z,100893.25
2023-04-09T06:08:02.935Z,100894.13
2023-04-09T06:10:31.719Z,100897.84
2023-04-09T06:12:58.150Z,100904.06
2023-04-09T06:15:24.651Z,100911.88
2023-04-09T06:17:52.432Z,100908.44
2023-04-09T06:20:19.130Z,100905.78
2023-04-09T06:22:45.588Z,100897.75
2023-04-09T06:25:12.020Z,100895.16
2023-04-09T06:27:38.489Z,100905.78
2023-04-09T06:30:05.899Z,100906.94
2023-04-09T06:32:35.574Z,100920.97
2023-04-09T06:35:11.353Z,100924.69
2023-04-09T06:37:37.806Z,100920.00
2023-04-09T06:40:04.772Z,100917.22
2023-04-09T06:42:31.187Z,100912.09
2023-04-09T06:44:57.675Z,100898.72
2023-04-09T06:47:24.164Z,100896.91
2023-04-09T06:49:50.707Z,100893.38
2023-04-09T06:52:18.641Z,100892.41
2023-04-09T06:54:45.254Z,100887.91
2023-04-09T06:57:11.697Z,100892.50
2023-04-09T06:59:38.142Z,100886.94
2023-04-09T07:02:04.676Z,100892.28
2023-04-09T07:04:31.378Z,100895.84
2023-04-09T07:06:57.953Z,100898.59
2023-04-09T07:09:25.745Z,100898.72
2023-04-09T07:11:52.212Z,100908.44
2023-04-09T07:14:18.686Z,100909.22
2023-04-09T07:16:45.146Z,100911.00
2023-04-09T07:19:11.775Z,100908.44
2023-04-09T07:21:38.378Z,100912.78
2023-04-09T07:24:05.272Z,100911.88
2023-04-09T07:26:33.011Z,100917.22
2023-04-09T07:28:59.430Z,100903.88
2023-04-09T07:31:25.960Z,100917.22
2023-04-09T07:33:52.783Z,100915.31
2023-04-09T07:36:19.499Z,100898.44
2023-04-09T07:38:45.994Z,100901.97
2023-04-09T07:41:12.440Z,100893.09
2023-04-09T07:43:40.538Z,100894.06
2023-04-09T07:46:06.985Z,100901.00
2023-04-09T07:48:33.581Z,100894.97
2023-04-09T07:51:00.008Z,100902.72
2023-04-09T07:53:26.461Z,100901.00
2023-04-09T07:55:53.090Z,100901.00
2023-04-09T07:58:19.564Z,100898.31
2023-04-09T08:00:48.069Z,100894.69
2023-04-09T08:03:14.715Z,100898.22
2023-04-09T08:05:41.458Z,100907.09
2023-04-09T08:08:07.985Z,100899.16
2023-04-09T08:10:34.432Z,100897.59
2023-04-09T08:13:00.875Z,100892.03
2023-04-09T08:15:27.431Z,100897.38
2023-04-09T08:17:55.203Z,100875.09
2023-04-09T08:20:21.852Z,100889.34
2023-04-09T08:22:48.303Z,100888.38
2023-04-09T08:25:14.841Z,100883.03
2023-04-09T08:27:41.445Z,100881.34
2023-04-09T08:30:08.905Z,100881.22
2023-04-09T08:32:35.421Z,100877.56
2023-04-09T08:35:03.342Z,100886.56
2023-04-09T08:37:29.880Z,100884.66
2023-04-09T08:39:56.477Z,100879.38
2023-04-09T08:42:25.885Z,100873.97
2023-04-09T08:44:52.559Z,100867.00
2023-04-09T08:47:20.169Z,100873.97
2023-04-09T08:49:46.667Z,100873.84
2023-04-09T08:52:14.463Z,100875.53
2023-04-09T08:54:40.961Z,100879.94
2023-04-09T08:57:07.612Z,100878.22
2023-04-09T08:59:34.180Z,100871.94
2023-04-09T09:02:08.675Z,100862.16
2023-04-09T09:04:44.506Z,100868.28
2023-04-09T09:07:11.051Z,100870.09
2023-04-09T09:09:52.023Z,100875.31
2023-04-09T09:12:28.995Z,100867.50
2023-04-09T09:14:55.461Z,100860.13
2023-04-09T09:17:21.984Z,100861.88
2023-04-09T09:19:48.439Z,100855.88
2023-04-09T09:22:14.979Z,100855.66
2023-04-09T09:24:47.698Z,100853.84
2023-04-09T09:27:32.084Z,100846.69
2023-04-09T09:29:58.721Z,100849.22
2023-04-09T09:32:25.347Z,100852.88
2023-04-09T09:34:58.855Z,100855.44
2023-04-09T09:37:26.967Z,100856.41
2023-04-09T09:39:54.174Z,100851.06
2023-04-09T09:42:21.048Z,100849.22
2023-04-09T09:44:50.216Z,100843.88
2023-04-09T09:47:18.396Z,100843.78
2023-04-09T09:49:44.955Z,100842.94
2023-04-09T09:52:12.900Z,100848.28
2023-04-09T09:54:41.212Z,100841.97
2023-04-09T09:57:09.453Z,100834.66
2023-04-09T09:59:38.038Z,100825.78
2023-04-09T10:02:09.846Z,100825.91
2023-04-09T10:04:37.027Z,100823.97
2023-04-09T10:07:05.325Z,100814.16
2023-04-09T10:09:32.126Z,100816.06
2023-04-09T10:12:00.457Z,100819.50
2023-04-09T10:14:28.346Z,100815.84
2023-04-09T10:16:55.137Z,100819.38
2023-04-09T10:19:22.939Z,100810.38
2023-04-09T10:21:53.736Z,100822.81
2023-04-09T10:24:20.709Z,100819.50
2023-04-09T10:26:47.237Z,100815.75
2023-04-09T10:29:15.340Z,100814.16
2023-04-09T10:31:52.464Z,100814.66
2023-04-09T10:34:21.678Z,100805.69
2023-04-09T10:36:53.173Z,100814.78
2023-04-09T10:39:19.745Z,100824.53
2023-04-09T10:41:48.379Z,100818.19
2023-04-09T10:44:23.448Z,100815.44
2023-04-09T10:46:52.379Z,100803.84
2023-04-09T10:49:20.531Z,100810.09
2023-04-09T10:51:51.269Z,100800.31
2023-04-09T10:54:37.603Z,100798.50
2023-04-09T10:57:13.725Z,100791.34
2023-04-09T10:59:41.753Z,100799.38
2023-04-09T11:02:09.511Z,100796.47
2023-04-09T11:04:48.503Z,100800.88
2023-04-09T11:07:19.322Z,100795.53
2023-04-09T11:09:47.180Z,100788.44
2023-04-09T11:12:13.622Z,100789.41
2023-04-09T11:14:40.058Z,100795.72
2023-04-09T11:17:06.559Z,100791.22
2023-04-09T11:19:33.677Z,100790.16
2023-04-09T11:22:00.192Z,100790.16
2023-04-09T11:24:40.228Z,100784.81
2023-04-09T11:27:06.660Z,100790.91
2023-04-09T11:29:34.936Z,100790.16
2023-04-09T11:32:01.575Z,100784.81
2023-04-09T11:34:28.149Z,100783.72
2023-04-09T11:36:54.736Z,100778.28
2023-04-09T11:39:21.208Z,100771.31
2023-04-09T11:41:49.082Z,100768.66
2023-04-09T11:44:15.593Z,100766.59
2023-04-09T11:46:42.280Z,100773.03
2023-04-09T11:49:09.239Z,100751.63
2023-04-09T11:51:36.543Z,100763.19
2023-04-09T11:54:03.381Z,100755.91
2023-04-09T11:56:30.072Z,100755.91
2023-04-09T11:58:58.374Z,100754.19
2023-04-09T12:01:25.009Z,100752.16
2023-04-09T12:03:53.081Z,100749.47
2023-04-09T12:06:21.521Z,100742.44
2023-04-09T12:08:48.216Z,100749.34
2023-04-09T12:11:15.672Z,100747.66
2023-04-09T12:13:42.232Z,100749.47
2023-04-09T12:16:10.157Z,100746.81
2023-04-09T12:18:37.258Z,100750.34
2023-04-09T12:21:04.523Z,100745.84
2023-04-09T12:23:31.030Z,100751.09
2023-04-09T12:25:58.013Z,100742.22
2023-04-09T12:28:24.431Z,100741.34
2023-04-09T12:30:51.054Z,100740.25
2023-04-09T12:33:18.787Z,100734.06
2023-04-09T12:35:45.322Z,100728.72
2023-04-09T12:38:11.997Z,100725.06
2023-04-09T12:40:38.795Z,100712.66
2023-04-09T12:43:05.673Z,100727.00
2023-04-09T12:45:32.921Z,100722.50
2023-04-09T12:47:59.440Z,100724.22
2023-04-09T12:50:28.299Z,100716.81
2023-04-09T12:52:54.784Z,100716.81
2023-04-09T12:55:21.231Z,100717.78
2023-04-09T12:57:50.224Z,100715.97
2023-04-09T13:00:16.659Z,100703.44
2023-04-09T13:02:43.359Z,100704.41
2023-04-09T13:05:10.412Z,100700.88
2023-04-09T13:07:38.207Z,100698.09
2023-04-09T13:10:05.594Z,100688.34
2023-04-09T13:12:32.224Z,100692.72
2023-04-09T13:14:58.702Z,100688.13
2023-04-09T13:17:25.330Z,100681.06
2023-04-09T13:19:51.795Z,100679.25
2023-04-09T13:22:18.348Z,100672.31
2023-04-09T13:24:46.305Z,100677.44
2023-04-09T13:27:13.072Z,100676.47
2023-04-09T13:29:39.593Z,100673.66
2023-04-09T13:32:06.071Z,100673.78
2023-04-09T13:34:33.179Z,100666.72
2023-04-09T13:36:59.683Z,100667.34
2023-04-09T13:39:26.131Z,100658.47
2023-04-09T13:41:53.834Z,100663.84
2023-04-09T13:44:20.421Z,100652.16
2023-04-09T13:46:46.863Z,100650.47
2023-04-09T13:49:13.378Z,100647.78
2023-04-09T13:51:40.098Z,100644.13
2023-04-09T13:54:06.538Z,100645.81
2023-04-09T13:56:33.020Z,100635.97
2023-04-09T13:59:00.779Z,100648.50
2023-04-09T14:01:27.276Z,100637.69
2023-04-09T14:03:54.196Z,100638.66
2023-04-09T14:06:20.778Z,100640.47
2023-04-09T14:08:47.251Z,100644.84
2023-04-09T14:11:13.864Z,100643.91
2023-04-09T14:13:40.396Z,100641.09
2023-04-09T14:16:08.908Z,100636.72
2023-04-09T14:18:35.413Z,100636.59
2023-04-09T14:21:02.022Z,100635.88
2023-04-09T14:23:28.520Z,100634.91
2023-04-09T14:25:54.995Z,100621.50
2023-04-09T14:28:21.511Z,100627.63
2023-04-09T14:30:47.954Z,100628.34
2023-04-09T14:33:15.709Z,100628.47
2023-04-09T14:35:42.160Z,100625.78
2023-04-09T14:38:08.634Z,100621.28
2023-04-09T14:40:36.557Z,100625.66
2023-04-09T14:43:03.043Z,100625.66
2023-04-09T14:45:30.676Z,100619.47
2023-04-09T14:47:57.701Z,100619.47
2023-04-09T14:50:25.635Z,100614.09
2023-04-09T14:52:52.286Z,100613.13
2023-04-09T14:55:18.815Z,100616.78
2023-04-09T14:57:45.241Z,100607.91
2023-04-09T15:00:12.786Z,100609.59
2023-04-09T15:02:39.449Z,100607.69
2023-04-09T15:05:06.919Z,100604.03
2023-04-09T15:07:34.731Z,100612.81
2023-04-09T15:10:01.452Z,100612.81
2023-04-09T15:12:28.531Z,100605.72
2023-04-09T15:14:55.328Z,100607.69
2023-04-09T15:17:21.816Z,100606.84
2023-04-09T15:19:48.382Z,100610.34
2023-04-09T15:22:15.027Z,100600.38
2023-04-09T15:24:42.882Z,100605.72
2023-04-09T15:27:09.329Z,100602.09
2023-04-09T15:29:35.883Z,100604.88
2023-04-09T15:32:02.783Z,100604.88
2023-04-09T15:34:29.329Z,100609.16
2023-04-09T15:36:55.752Z,100610.00
2023-04-09T15:39:22.585Z,100620.81
2023-04-09T15:41:50.646Z,100627.97
2023-04-09T15:44:17.064Z,100627.03
2023-04-09T15:46:43.519Z,100619.72
2023-04-09T15:49:10.076Z,100626.91
2023-04-09T15:51:36.628Z,100618.78
2023-04-09T15:54:03.211Z,100617.94
2023-04-09T15:56:29.789Z,100618.88
2023-04-09T15:58:57.604Z,100627.75
2023-04-09T16:01:24.094Z,100621.53
2023-04-09T16:03:50.650Z,100626.06
2023-04-09T16:06:17.908Z,100626.06
2023-04-09T16:08:44.616Z,100633.09
2023-04-09T16:11:11.049Z,100633.00
2023-04-09T16:13:37.505Z,100636.53
2023-04-09T16:16:05.876Z,100630.31
2023-04-09T16:18:33.064Z,100624.00
2023-04-09T16:20:59.623Z,100632.88
2023-04-09T16:23:26.825Z,100634.69
2023-04-09T16:25:53.605Z,100633.00
2023-04-09T16:28:21.208Z,100625.69
2023-04-09T16:30:47.859Z,100629.34
2023-04-09T16:33:15.768Z,100636.53
2023-04-09T16:35:42.296Z,100630.09
2023-04-09T16:38:09.101Z,100630.09
2023-04-09T16:40:35.569Z,100628.38
2023-04-09T16:43:02.398Z,100623.00
2023-04-09T16:45:29.263Z,100618.53
2023-04-09T16:47:55.929Z,100616.72
2023-04-09T16:50:24.079Z,100614.03
2023-04-09T16:52:50.589Z,100609.63
2023-04-09T16:55:17.424Z,100613.28
2023-04-09T16:57:43.879Z,100609.53
2023-04-09T17:00:10.857Z,100604.28
2023-04-09T17:02:37.387Z,100609.63
2023-04-09T17:05:04.141Z,100608.69
2023-04-09T17:07:31.907Z,100603.34
2023-04-09T17:09:58.347Z,100606.84
2023-04-09T17:12:24.788Z,100601.59
2023-04-09T17:14:51.326Z,100597.97
2023-04-09T17:17:17.900Z,100598.94
2023-04-09T17:19:44.385Z,100595.16
2023-04-09T17:22:10.882Z,100589.94
2023-04-09T17:24:38.634Z,100590.91
2023-04-09T17:27:05.194Z,100592.63
2023-04-09T17:29:31.856Z,100589.19
2023-04-09T17:31:58.419Z,100576.81
2023-04-09T17:34:24.885Z,100581.06
2023-04-09T17:36:51.368Z,100574.13
2023-04-09T17:39:17.833Z,100585.69
2023-04-09T17:41:45.592Z,100583.13
2023-04-09T17:44:12.055Z,100576.81
2023-04-09T17:46:38.520Z,100574.00
2023-04-09T17:49:04.966Z,100566.81
2023-04-09T17:51:31.411Z,100565.88
2023-04-09T17:53:57.894Z,100571.44
2023-04-09T17:56:24.370Z,100573.16
2023-04-09T17:58:52.350Z,100570.59
2023-04-09T18:01:19.170Z,100573.38
2023-04-09T18:03:46.373Z,100567.78
2023-04-09T18:06:12.953Z,100574.13
2023-04-09T18:08:39.377Z,100567.91
2023-04-09T18:11:12.605Z,100562.81
2023-04-09T18:13:39.496Z,100564.63
2023-04-09T18:16:09.792Z,100570.81
2023-04-09T18:18:36.246Z,100574.34
2023-04-09T18:21:02.770Z,100571.69
2023-04-09T18:23:29.489Z,100569.84
2023-04-09T18:25:55.948Z,100577.13
2023-04-09T18:28:22.459Z,100582.38
2023-04-09T18:30:49.091Z,100584.09
2023-04-09T18:33:16.862Z,100573.50
2023-04-09T18:35:43.424Z,100582.63
2023-04-09T18:38:09.863Z,100580.78
2023-04-09T18:40:40.546Z,100584.31
2023-04-09T18:43:06.978Z,100579.19
2023-04-09T18:45:33.442Z,100580.91
2023-04-09T18:47:59.963Z,100575.66
2023-04-09T18:50:27.741Z,100585.41
2023-04-09T18:52:54.195Z,100578.25
2023-04-09T18:55:20.660Z,100570.31
2023-04-09T18:57:47.121Z,100565.81
2023-04-09T19:00:14.101Z,100576.66
2023-04-09T19:02:40.909Z,100585.66
2023-04-09T19:05:08.064Z,100586.50
2023-04-09T19:07:35.956Z,100591.84
2023-04-09T19:10:02.560Z,100595.50
2023-04-09T19:12:29.038Z,100595.38
2023-04-09T19:14:55.464Z,100596.22
2023-04-09T19:17:21.943Z,100592.06
2023-04-09T19:19:48.470Z,100593.91
2023-04-09T19:22:14.893Z,100584.81
2023-04-09T19:24:44.454Z,100586.72
2023-04-09T19:27:10.879Z,100587.56
2023-04-09T19:29:37.364Z,100589.41
2023-04-09T19:32:03.970Z,100582.97
2023-04-09T19:34:30.587Z,100588.44
2023-04-09T19:36:57.098Z,100587.47
2023-04-09T19:39:23.648Z,100586.72
2023-04-09T19:41:51.357Z,100583.06
2023-04-09T19:44:17.805Z,100586.72
2023-04-09T19:46:44.315Z,100579.69
2023-04-09T19:49:10.785Z,100590.38
2023-04-09T19:51:37.230Z,100589.41
2023-04-09T19:54:03.781Z,100593.16
2023-04-09T19:56:30.190Z,100592.94
2023-04-09T19:58:57.967Z,100593.06
2023-04-09T20:01:24.458Z,100591.34
2023-04-09T20:03:51.052Z,100595.75
2023-04-09T20:06:17.729Z,100599.25
2023-04-09T20:08:44.146Z,100590.38
2023-04-09T20:11:16.942Z,100596.69
2023-04-09T20:13:43.402Z,100588.66
2023-04-09T20:16:11.162Z,100599.34
2023-04-09T20:18:37.620Z,100595.97
2023-04-09T20:21:04.272Z,100592.31
2023-04-09T20:23:30.738Z,100589.63
2023-04-09T20:25:57.191Z,100594.13
2023-04-09T20:28:23.611Z,100595.97
2023-04-09T20:30:50.155Z,100593.28
2023-04-09T20:33:18.671Z,100592.44
2023-04-09T20:35:45.228Z,100595.22
2023-04-09T20:38:11.826Z,100595.97
2023-04-09T20:40:38.266Z,100601.09
2023-04-09T20:43:04.809Z,100598.50
2023-04-09T20:45:31.291Z,100599.34
2023-04-09T20:47:57.969Z,100597.66
2023-04-09T20:50:25.835Z,100593.16
2023-04-09T20:52:52.269Z,100595.00
2023-04-09T20:55:18.862Z,100599.63
2023-04-09T20:57:45.333Z,100595.13
2023-04-09T21:00:12.667Z,100594.25
2023-04-09T21:02:40.416Z,100590.63
2023-04-09T21:05:19.513Z,100588.03
2023-04-09T21:07:51.425Z,100596.94
2023-04-09T21:10:18.044Z,100585.25
2023-04-09T21:12:44.516Z,100587.94
2023-04-09T21:15:11.365Z,100586.09
2023-04-09T21:17:37.993Z,100591.47
2023-04-09T21:20:05.479Z,100584.41
2023-04-09T21:22:33.575Z,100576.47
2023-04-09T21:25:01.380Z,100576.47
2023-04-09T21:27:27.850Z,100573.81
2023-04-09T21:29:54.274Z,100571.88
2023-04-09T21:32:20.993Z,100572.88
2023-04-09T21:34:47.492Z,100566.75
2023-04-09T21:37:13.904Z,100574.56
2023-04-09T21:39:40.386Z,100571.13
2023-04-09T21:42:08.272Z,100572.13
2023-04-09T21:44:34.720Z,100569.44
2023-04-09T21:47:01.187Z,100558.72
2023-04-09T21:49:27.655Z,100555.81
2023-04-09T21:51:54.147Z,100558.59
2023-04-09T21:54:20.622Z,100557.66
2023-04-09T21:56:47.040Z,100551.47
2023-04-09T21:59:14.776Z,100555.81
2023-04-09T22:01:41.308Z,100553.25
2023-04-09T22:04:07.889Z,100541.69
2023-04-09T22:06:34.417Z,100541.47
2023-04-09T22:09:01.018Z,100541.69
2023-04-09T22:11:28.704Z,100541.59
2023-04-09T22:13:55.877Z,100544.38
2023-04-09T22:16:24.130Z,100538.31
2023-04-09T22:18:50.981Z,100540.13
2023-04-09T22:21:17.762Z,100539.25
2023-04-09T22:23:44.439Z,100542.81
2023-04-09T22:26:11.036Z,100540.13
2023-04-09T22:28:37.508Z,100541.84
2023-04-09T22:31:04.075Z,100531.13
2023-04-09T22:33:31.855Z,100535.41
2023-04-09T22:35:58.335Z,100540.97
2023-04-09T22:38:24.948Z,100526.63
2023-04-09T22:40:51.515Z,100524.81
2023-04-09T22:43:17.947Z,100531.97
2023-04-09T22:45:50.283Z,100527.47
2023-04-09T22:48:16.787Z,100529.44
2023-04-09T22:50:44.675Z,100529.44
2023-04-09T22:53:11.316Z,100533.91
2023-04-09T22:55:37.839Z,100527.47
2023-04-09T22:58:04.380Z,100523.97
2023-04-09T23:00:30.837Z,100537.34
2023-04-09T23:02:57.513Z,100530.06
2023-04-09T23:05:24.052Z,100529.31
2023-04-09T23:07:51.770Z,100527.59
2023-04-09T23:10:18.377Z,100522.13
2023-04-09T23:12:44.955Z,100516.91
2023-04-09T23:15:11.584Z,100517.84
2023-04-09T23:17:38.289Z,100508.88
2023-04-09T23:20:05.577Z,100515.94
2023-04-09T23:22:32.097Z,100509.72
2023-04-09T23:24:59.861Z,100519.59
2023-04-09T23:27:26.444Z,100514.94
2023-04-09T23:29:52.890Z,100513.38
2023-04-09T23:32:19.367Z,100510.72
2023-04-09T23:34:45.819Z,100519.59
2023-04-09T23:37:12.274Z,100516.91
2023-04-09T23:39:38.728Z,100512.41
2023-04-09T23:42:06.489Z,100514.94
2023-04-09T23:44:33.025Z,100510.56
2023-04-09T23:46:59.575Z,100508.88
2023-04-09T23:49:27.063Z,100509.72
2023-04-09T23:51:53.587Z,100513.25
2023-04-09T23:54:20.094Z,100512.41
2023-04-09T23:56:46.569Z,100507.91
2023-04-09T23:59:14.466Z,100510.56
